createdAt,value
2022-07-26T00:01:55.851Z,1.00
2022-07-26T00:04:22.554Z,1.65
2022-07-26T00:06:50.414Z,1.20
2022-07-26T00:09:17.267Z,1.10
2022-07-26T00:11:43.850Z,1.52
2022-07-26T00:14:10.476Z,1.10
2022-07-26T00:16:39.456Z,1.15
2022-07-26T00:19:09.754Z,1.20
2022-07-26T00:21:37.503Z,1.17
2022-07-26T00:24:08.288Z,0.75
2022-07-26T00:26:35.124Z,1.30
2022-07-26T00:29:04.336Z,1.15
2022-07-26T00:31:32.667Z,1.10
2022-07-26T00:33:59.465Z,0.75
2022-07-26T00:36:27.611Z,1.15
2022-07-26T00:38:54.192Z,1.73
2022-07-26T00:41:20.840Z,2.03
2022-07-26T00:43:58.700Z,1.85
2022-07-26T00:46:25.641Z,1.40
2022-07-26T00:48:52.300Z,1.48
2022-07-26T00:51:21.016Z,1.73
2022-07-26T00:53:48.955Z,1.40
2022-07-26T00:56:16.347Z,1.45
2022-07-26T00:58:43.661Z,1.05
2022-07-26T01:01:11.470Z,0.95
2022-07-26T01:03:39.761Z,1.03
2022-07-26T01:06:06.955Z,1.10
2022-07-26T01:08:33.726Z,0.90
2022-07-26T01:11:01.568Z,1.40
2022-07-26T01:13:31.956Z,0.80
2022-07-26T01:16:01.864Z,1.63
2022-07-26T01:18:33.430Z,1.30
2022-07-26T01:21:13.503Z,1.10
2022-07-26T01:23:41.730Z,1.00
2022-07-26T01:26:08.634Z,1.25
2022-07-26T01:28:40.008Z,1.83
2022-07-26T01:31:08.077Z,0.95
2022-07-26T01:33:35.026Z,2.10
2022-07-26T01:36:02.167Z,1.70
2022-07-26T01:38:28.964Z,1.15
2022-07-26T01:40:55.714Z,0.93
2022-07-26T01:43:22.357Z,1.77
2022-07-26T01:45:48.940Z,1.60
2022-07-26T01:48:15.711Z,1.20
2022-07-26T01:50:42.660Z,1.02
2022-07-26T01:53:09.226Z,1.50
2022-07-26T01:55:36.727Z,1.70
2022-07-26T01:58:07.210Z,1.67
2022-07-26T02:00:34.395Z,1.17
2022-07-26T02:03:01.323Z,2.10
2022-07-26T02:05:27.974Z,2.70
2022-07-26T02:07:56.668Z,0.82
2022-07-26T02:10:23.817Z,1.00
2022-07-26T02:12:51.811Z,1.23
2022-07-26T02:15:18.767Z,0.82
2022-07-26T02:17:45.883Z,1.10
2022-07-26T02:20:12.905Z,0.90
2022-07-26T02:22:39.423Z,1.60
2022-07-26T02:25:06.436Z,0.98
2022-07-26T02:27:33.057Z,1.17
2022-07-26T02:29:59.578Z,0.60
2022-07-26T02:32:28.954Z,0.70
2022-07-26T02:34:55.484Z,0.55
2022-07-26T02:37:22.460Z,0.80
2022-07-26T02:39:49.240Z,1.38
2022-07-26T02:42:16.338Z,0.67
2022-07-26T02:44:43.078Z,0.77
2022-07-26T02:47:09.713Z,1.75
2022-07-26T02:49:39.468Z,0.47
2022-07-26T02:52:06.004Z,0.43
2022-07-26T02:54:32.649Z,0.67
2022-07-26T02:56:59.308Z,2.10
2022-07-26T02:59:25.976Z,0.70
2022-07-26T03:01:53.920Z,0.88
2022-07-26T03:04:20.701Z,1.10
2022-07-26T03:06:47.194Z,0.87
2022-07-26T03:09:13.924Z,1.15
2022-07-26T03:11:40.549Z,0.40
2022-07-26T03:14:10.246Z,0.70
2022-07-26T03:16:37.201Z,0.73
2022-07-26T03:19:03.919Z,0.53
2022-07-26T03:21:32.694Z,1.00
2022-07-26T03:23:59.146Z,0.55
2022-07-26T03:26:25.768Z,0.52
2022-07-26T03:28:53.069Z,0.38
2022-07-26T03:31:19.842Z,0.40
2022-07-26T03:33:46.536Z,0.50
2022-07-26T03:36:15.598Z,0.98
2022-07-26T03:38:42.587Z,0.50
2022-07-26T03:41:09.060Z,0.57
2022-07-26T03:43:40.427Z,0.33
2022-07-26T03:46:07.136Z,0.40
2022-07-26T03:48:33.847Z,0.60
2022-07-26T03:51:00.650Z,0.40
2022-07-26T03:53:27.391Z,0.50
2022-07-26T03:56:13.426Z,0.40
2022-07-26T03:58:40.167Z,0.40
2022-07-26T04:01:06.828Z,0.38
2022-07-26T04:03:33.377Z,0.40
2022-07-26T04:06:00.243Z,1.05
2022-07-26T04:08:28.072Z,0.30
2022-07-26T04:10:54.799Z,0.32
2022-07-26T04:13:24.317Z,0.70
2022-07-26T04:15:51.462Z,0.50
2022-07-26T04:18:18.096Z,0.40
2022-07-26T04:20:45.437Z,0.97
2022-07-26T04:23:12.482Z,0.57
2022-07-26T04:25:41.952Z,0.60
2022-07-26T04:28:09.959Z,0.30
2022-07-26T04:30:37.149Z,0.40
2022-07-26T04:33:04.680Z,0.40
2022-07-26T04:35:31.724Z,0.70
2022-07-26T04:37:58.835Z,0.70
2022-07-26T04:40:28.177Z,0.52
2022-07-26T04:42:55.946Z,0.60
2022-07-26T04:45:22.818Z,2.20
2022-07-26T04:47:50.765Z,0.40
2022-07-26T04:50:19.460Z,1.42
2022-07-26T04:52:46.204Z,0.52
2022-07-26T04:55:13.258Z,0.40
2022-07-26T04:57:39.857Z,0.60
2022-07-26T05:00:22.249Z,0.55
2022-07-26T05:02:54.549Z,0.82
2022-07-26T05:05:22.582Z,0.80
2022-07-26T05:07:52.172Z,0.40
2022-07-26T05:10:20.043Z,0.97
2022-07-26T05:12:47.521Z,0.63
2022-07-26T05:15:14.939Z,0.40
2022-07-26T05:17:43.614Z,0.50
2022-07-26T05:20:12.290Z,0.80
2022-07-26T05:22:39.681Z,0.77
2022-07-26T05:25:07.617Z,0.57
2022-07-26T05:27:34.522Z,0.40
2022-07-26T05:30:03.078Z,0.40
2022-07-26T05:32:29.635Z,1.05
2022-07-26T05:34:56.676Z,0.60
2022-07-26T05:37:23.253Z,0.55
2022-07-26T05:39:49.657Z,0.80
2022-07-26T05:42:16.274Z,0.50
2022-07-26T05:44:44.016Z,0.32
2022-07-26T05:47:11.600Z,0.40
2022-07-26T05:49:39.830Z,0.35
2022-07-26T05:52:07.863Z,0.40
2022-07-26T05:54:34.704Z,0.40
2022-07-26T05:57:01.312Z,0.30
2022-07-26T05:59:28.411Z,0.30
2022-07-26T06:01:56.812Z,0.40
2022-07-26T06:04:25.035Z,0.32
2022-07-26T06:06:55.090Z,1.05
2022-07-26T06:09:26.809Z,0.43
2022-07-26T06:11:54.767Z,0.20
2022-07-26T06:14:21.305Z,0.22
2022-07-26T06:16:48.497Z,0.20
2022-07-26T06:19:15.165Z,0.40
2022-07-26T06:21:50.691Z,0.40
2022-07-26T06:24:17.477Z,0.63
2022-07-26T06:26:44.682Z,0.38
2022-07-26T06:29:11.299Z,0.30
2022-07-26T06:31:37.839Z,1.05
2022-07-26T06:34:04.539Z,0.60
2022-07-26T06:36:31.388Z,0.60
2022-07-26T06:38:59.756Z,0.30
2022-07-26T06:41:26.476Z,0.40
2022-07-26T06:43:53.134Z,0.90
2022-07-26T06:46:21.198Z,0.25
2022-07-26T06:48:52.720Z,0.60
2022-07-26T06:51:19.865Z,0.20
2022-07-26T06:53:46.639Z,0.20
2022-07-26T06:56:15.165Z,0.40
2022-07-26T06:58:42.640Z,0.20
2022-07-26T07:01:09.493Z,0.20
2022-07-26T07:03:36.629Z,0.73
2022-07-26T07:06:03.415Z,0.30
2022-07-26T07:08:30.225Z,0.50
2022-07-26T07:10:57.020Z,0.30
2022-07-26T07:13:25.175Z,0.30
2022-07-26T07:15:56.548Z,0.30
2022-07-26T07:21:09.745Z,0.25
2022-07-26T07:23:40.063Z,0.40
2022-07-26T07:26:06.822Z,0.50
2022-07-26T07:28:38.302Z,0.35
2022-07-26T07:31:05.916Z,0.38
2022-07-26T07:33:36.645Z,0.43
2022-07-26T07:36:10.785Z,0.40
2022-07-26T07:38:37.360Z,0.30
2022-07-26T07:41:04.248Z,0.22
2022-07-26T07:43:30.673Z,0.38
2022-07-26T07:45:57.455Z,0.65
2022-07-26T07:48:24.284Z,0.28
2022-07-26T07:50:50.819Z,0.20
2022-07-26T07:53:19.901Z,0.35
2022-07-26T07:56:45.822Z,0.30
2022-07-26T07:59:12.963Z,0.20
2022-07-26T08:01:41.207Z,0.30
2022-07-26T08:04:09.520Z,0.23
2022-07-26T08:06:36.554Z,0.20
2022-07-26T08:09:05.648Z,0.50
2022-07-26T08:11:34.353Z,0.20
2022-07-26T08:14:01.959Z,0.20
2022-07-26T08:16:28.682Z,0.17
2022-07-26T08:18:57.796Z,0.10
2022-07-26T08:21:26.366Z,0.22
2022-07-26T08:23:55.136Z,1.30
2022-07-26T08:26:21.687Z,0.20
2022-07-26T08:28:59.404Z,0.20
2022-07-26T08:31:27.699Z,0.30
2022-07-26T08:33:54.842Z,0.20
2022-07-26T08:37:06.894Z,0.75
2022-07-26T08:39:56.866Z,0.60
2022-07-26T08:42:26.373Z,0.10
2022-07-26T08:44:53.303Z,0.20
2022-07-26T08:50:26.414Z,0.20
2022-07-26T08:53:22.963Z,0.10
2022-07-26T08:56:08.670Z,0.20
2022-07-26T09:02:32.026Z,0.20
2022-07-26T09:05:05.663Z,0.20
2022-07-26T09:08:02.049Z,0.20
2022-07-26T09:10:38.872Z,0.30
2022-07-26T09:16:39.874Z,0.20
2022-07-26T09:23:10.162Z,0.30
2022-07-26T09:29:13.356Z,0.20
2022-07-26T09:31:43.475Z,0.20
2022-07-26T09:38:49.754Z,0.30
2022-07-26T09:44:19.846Z,0.28
2022-07-26T09:46:56.402Z,0.20
2022-07-26T09:49:40.385Z,0.20
2022-07-26T09:52:21.663Z,0.30
2022-07-26T09:55:21.214Z,0.20
2022-07-26T09:58:16.642Z,0.35
2022-07-26T10:00:44.370Z,0.15
2022-07-26T10:04:33.733Z,0.20
2022-07-26T10:07:36.068Z,0.20
2022-07-26T10:10:20.335Z,0.40
2022-07-26T10:16:38.143Z,0.32
2022-07-26T10:19:05.283Z,0.82
2022-07-26T10:21:32.424Z,0.60
2022-07-26T10:24:31.668Z,0.30
2022-07-26T10:26:59.287Z,0.20
2022-07-26T10:29:28.079Z,0.20
2022-07-26T10:32:01.567Z,0.10
2022-07-26T10:34:41.005Z,0.10
2022-07-26T10:37:27.825Z,0.43
2022-07-26T10:40:25.637Z,0.20
2022-07-26T10:42:52.358Z,0.20
2022-07-26T10:45:25.744Z,0.40
2022-07-26T10:48:27.938Z,0.20
2022-07-26T11:02:06.349Z,0.38
2022-07-26T11:04:32.893Z,0.30
2022-07-26T11:07:01.513Z,0.50
2022-07-26T11:09:34.566Z,0.30
2022-07-26T11:12:25.361Z,0.40
2022-07-26T11:24:32.351Z,0.73
2022-07-26T11:27:04.511Z,0.30
2022-07-26T11:32:52.967Z,0.20
2022-07-26T11:35:19.692Z,0.32
2022-07-26T11:38:05.115Z,0.20
2022-07-26T11:40:45.448Z,0.68
2022-07-26T11:43:12.512Z,0.30
2022-07-26T11:45:39.087Z,1.33
2022-07-26T11:48:06.314Z,0.47
2022-07-26T11:50:33.145Z,0.30
2022-07-26T11:53:00.098Z,0.52
2022-07-26T11:55:28.165Z,0.30
2022-07-26T11:57:55.571Z,0.77
2022-07-26T12:00:23.703Z,0.30
2022-07-26T12:02:55.790Z,0.30
2022-07-26T12:05:23.773Z,0.60
2022-07-26T12:08:07.230Z,0.32
2022-07-26T12:10:34.225Z,0.88
2022-07-26T12:13:10.185Z,0.70
2022-07-26T12:15:55.132Z,0.50
2022-07-26T12:18:39.209Z,0.50
2022-07-26T12:21:08.885Z,0.73
2022-07-26T12:23:46.227Z,0.43
2022-07-26T12:26:19.958Z,0.57
2022-07-26T12:28:47.458Z,0.73
2022-07-26T12:31:30.672Z,0.30
2022-07-26T12:33:57.769Z,0.38
2022-07-26T12:36:28.365Z,0.43
2022-07-26T12:39:00.298Z,0.43
2022-07-26T12:41:37.249Z,0.60
2022-07-26T12:44:11.600Z,0.88
2022-07-26T12:46:38.767Z,0.55
2022-07-26T12:49:05.550Z,1.05
2022-07-26T12:51:32.268Z,0.57
2022-07-26T12:53:58.878Z,0.37
2022-07-26T12:56:25.431Z,0.60
2022-07-26T12:58:53.932Z,0.55
2022-07-26T13:01:21.215Z,0.60
2022-07-26T13:03:47.856Z,0.40
2022-07-26T13:06:14.397Z,0.40
2022-07-26T13:08:40.949Z,0.57
2022-07-26T13:11:07.473Z,0.88
2022-07-26T13:13:34.030Z,0.65
2022-07-26T13:16:00.553Z,0.60
2022-07-26T13:18:27.129Z,0.40
2022-07-26T13:20:53.728Z,0.30
2022-07-26T13:23:21.657Z,0.60
2022-07-26T13:25:49.060Z,0.73
2022-07-26T13:28:17.179Z,0.43
2022-07-26T13:30:44.993Z,1.37
2022-07-26T13:33:12.086Z,0.40
2022-07-26T13:35:41.298Z,0.55
2022-07-26T13:38:08.156Z,0.50
2022-07-26T13:40:34.711Z,0.35
2022-07-26T13:43:01.419Z,0.30
2022-07-26T13:45:29.121Z,0.50
2022-07-26T13:47:57.638Z,0.50
2022-07-26T13:50:26.590Z,0.40
2022-07-26T13:52:54.525Z,1.60
2022-07-26T13:55:21.177Z,0.20
2022-07-26T13:57:56.279Z,0.50
2022-07-26T14:00:24.712Z,0.40
2022-07-26T14:02:51.310Z,0.88
2022-07-26T14:05:18.468Z,0.47
2022-07-26T14:07:45.023Z,0.53
2022-07-26T14:10:11.769Z,0.55
2022-07-26T14:12:38.572Z,0.40
2022-07-26T14:15:11.499Z,0.32
2022-07-26T14:17:39.973Z,0.35
2022-07-26T14:20:07.520Z,0.37
2022-07-26T14:22:35.139Z,0.38
2022-07-26T14:25:01.645Z,0.55
2022-07-26T14:27:28.117Z,0.32
2022-07-26T14:29:54.570Z,0.40
2022-07-26T14:32:22.181Z,0.60
2022-07-26T14:34:49.883Z,0.57
2022-07-26T14:37:41.788Z,0.55
2022-07-26T14:40:05.880Z,0.30
2022-07-26T14:42:32.881Z,0.30
2022-07-26T14:44:59.618Z,0.30
2022-07-26T14:47:26.263Z,0.32
2022-07-26T14:49:52.862Z,0.30
2022-07-26T14:52:19.490Z,0.40
2022-07-26T14:54:46.232Z,0.30
2022-07-26T14:57:12.778Z,0.30
2022-07-26T14:59:44.351Z,0.20
2022-07-26T15:02:12.619Z,0.20
2022-07-26T15:04:39.481Z,0.30
2022-07-26T15:07:06.129Z,0.30
2022-07-26T15:09:34.553Z,0.30
2022-07-26T15:12:01.215Z,0.22
2022-07-26T15:14:27.843Z,0.40
2022-07-26T15:16:54.559Z,0.40
2022-07-26T15:19:25.737Z,0.70
2022-07-26T15:21:54.208Z,0.33
2022-07-26T15:24:21.173Z,0.43
2022-07-26T15:26:50.586Z,0.60
2022-07-26T15:29:17.267Z,0.40
2022-07-26T15:31:44.446Z,0.15
2022-07-26T15:34:11.524Z,0.50
2022-07-26T15:36:38.534Z,0.47
2022-07-26T15:39:16.492Z,0.40
2022-07-26T15:41:44.512Z,0.30
2022-07-26T15:44:14.702Z,0.28
2022-07-26T15:46:41.763Z,0.30
2022-07-26T15:49:10.094Z,0.40
2022-07-26T15:51:37.175Z,0.60
2022-07-26T15:54:06.904Z,0.47
2022-07-26T15:56:33.479Z,0.77
2022-07-26T15:59:01.334Z,0.70
2022-07-26T16:01:28.661Z,0.20
2022-07-26T16:03:55.636Z,0.30
2022-07-26T16:12:14.732Z,0.33
2022-07-26T16:17:46.328Z,0.20
2022-07-26T16:20:15.856Z,0.40
2022-07-26T16:22:49.540Z,0.30
2022-07-26T16:29:16.163Z,0.20
2022-07-26T16:33:03.109Z,0.30
2022-07-26T16:40:14.918Z,0.50
2022-07-26T16:42:23.961Z,0.23
2022-07-26T16:44:58.572Z,0.40
2022-07-26T16:47:35.264Z,0.40
2022-07-26T16:50:02.095Z,0.40
2022-07-26T16:52:29.024Z,0.47
2022-07-26T16:54:55.840Z,0.37
2022-07-26T16:57:44.958Z,0.30
2022-07-26T17:00:19.047Z,0.82
2022-07-26T17:02:52.011Z,0.40
2022-07-26T17:05:42.789Z,0.57
2022-07-26T17:11:56.791Z,0.20
2022-07-26T17:15:17.791Z,0.20
2022-07-26T17:17:52.600Z,0.98
2022-07-26T17:20:27.399Z,1.02
2022-07-26T17:24:22.818Z,0.70
2022-07-26T17:29:19.595Z,0.70
2022-07-26T17:34:42.033Z,0.30
2022-07-26T17:41:21.118Z,0.25
2022-07-26T17:43:48.266Z,0.20
2022-07-26T17:46:22.296Z,0.50
2022-07-26T17:48:57.629Z,0.30
2022-07-26T17:51:25.042Z,0.37
2022-07-26T17:53:53.836Z,0.28
2022-07-26T17:56:21.164Z,0.30
2022-07-26T17:58:47.771Z,0.50
2022-07-26T18:01:14.476Z,0.40
2022-07-26T18:03:40.954Z,0.30
2022-07-26T18:06:10.211Z,0.50
2022-07-26T18:08:40.432Z,0.25
2022-07-26T18:14:19.004Z,0.30
2022-07-26T18:16:54.344Z,0.30
2022-07-26T18:19:21.511Z,0.25
2022-07-26T18:21:48.177Z,0.30
2022-07-26T18:24:17.580Z,0.50
2022-07-26T18:26:44.491Z,0.20
2022-07-26T18:29:11.761Z,0.53
2022-07-26T18:31:41.444Z,0.40
2022-07-26T18:34:08.693Z,0.55
2022-07-26T18:36:35.336Z,0.20
2022-07-26T18:39:04.565Z,0.50
2022-07-26T18:41:32.903Z,0.20
2022-07-26T18:44:04.573Z,0.22
2022-07-26T18:46:31.289Z,0.35
2022-07-26T18:49:20.153Z,0.65
2022-07-26T18:52:18.239Z,0.20
2022-07-26T18:55:11.558Z,0.10
2022-07-26T18:58:06.228Z,0.30
2022-07-26T19:00:38.276Z,0.20
2022-07-26T19:03:04.911Z,0.20
2022-07-26T19:05:34.347Z,0.20
2022-07-26T19:08:02.625Z,0.20
2022-07-26T19:10:29.178Z,0.60
2022-07-26T19:12:56.099Z,0.28
2022-07-26T19:15:22.769Z,0.20
2022-07-26T19:17:49.273Z,0.20
2022-07-26T19:20:18.893Z,0.20
2022-07-26T19:22:47.327Z,0.25
2022-07-26T19:25:17.269Z,0.20
2022-07-26T19:27:44.597Z,0.20
2022-07-26T19:30:20.560Z,1.20
2022-07-26T19:32:47.200Z,0.10
2022-07-26T19:35:13.731Z,0.20
2022-07-26T19:37:47.044Z,0.10
2022-07-26T19:40:16.292Z,0.40
2022-07-26T19:45:32.454Z,0.20
2022-07-26T19:48:00.351Z,1.15
2022-07-26T19:50:30.866Z,0.20
2022-07-26T19:53:06.302Z,0.20
2022-07-26T19:55:38.543Z,0.25
2022-07-26T19:58:21.311Z,0.13
2022-07-26T20:00:57.594Z,0.20
2022-07-26T20:03:36.396Z,1.02
2022-07-26T20:09:48.995Z,0.25
2022-07-26T20:15:26.371Z,0.40
2022-07-26T20:17:53.076Z,0.20
2022-07-26T20:20:20.103Z,0.20
2022-07-26T20:22:51.823Z,0.38
2022-07-26T20:25:21.692Z,0.20
2022-07-26T20:27:53.659Z,0.10
2022-07-26T20:30:20.358Z,0.38
2022-07-26T20:32:46.922Z,0.20
2022-07-26T20:35:13.652Z,0.30
2022-07-26T20:37:41.647Z,0.20
2022-07-26T20:40:09.134Z,0.25
2022-07-26T20:42:36.211Z,0.20
2022-07-26T20:45:05.714Z,0.32
2022-07-26T20:47:40.594Z,0.20
2022-07-26T20:50:10.580Z,0.13
2022-07-26T20:52:37.251Z,0.30
2022-07-26T20:55:04.297Z,0.30
2022-07-26T20:57:31.032Z,0.22
2022-07-26T20:59:58.837Z,0.30
2022-07-26T21:02:25.992Z,0.30
2022-07-26T21:04:52.848Z,0.20
2022-07-26T21:07:22.484Z,0.30
2022-07-26T21:09:49.085Z,0.10
2022-07-26T21:12:16.639Z,0.55
2022-07-26T21:14:43.210Z,0.27
2022-07-26T21:17:12.132Z,0.43
2022-07-26T21:19:39.607Z,0.10
2022-07-26T21:22:06.786Z,0.10
2022-07-26T21:24:35.061Z,0.10
2022-07-26T21:27:02.496Z,0.20
2022-07-26T21:29:29.188Z,0.20
2022-07-26T21:31:56.006Z,0.13
2022-07-26T21:34:24.993Z,0.20
2022-07-26T21:36:52.877Z,0.10
2022-07-26T21:39:20.037Z,0.20
2022-07-26T21:41:46.740Z,0.13
2022-07-26T21:44:14.759Z,0.40
2022-07-26T21:46:42.042Z,0.10
2022-07-26T21:49:09.042Z,0.20
2022-07-26T21:51:36.065Z,0.87
2022-07-26T21:54:02.573Z,0.30
2022-07-26T21:56:29.383Z,0.30
2022-07-26T21:58:56.004Z,0.20
2022-07-26T22:01:26.193Z,0.20
2022-07-26T22:03:53.077Z,0.10
2022-07-26T22:06:19.713Z,0.65
2022-07-26T22:08:46.267Z,0.35
2022-07-26T22:11:12.983Z,0.20
2022-07-26T22:13:39.787Z,0.10
2022-07-26T22:16:06.974Z,0.20
2022-07-26T22:18:33.669Z,0.10
2022-07-26T22:21:04.796Z,0.20
2022-07-26T22:23:31.381Z,0.10
2022-07-26T22:25:59.309Z,0.20
2022-07-26T22:28:25.775Z,0.20
2022-07-26T22:30:52.328Z,0.20
2022-07-26T22:36:00.891Z,0.20
2022-07-26T22:38:27.735Z,0.10
2022-07-26T22:40:54.420Z,0.20
2022-07-26T22:43:21.652Z,0.20
2022-07-26T22:46:19.535Z,0.43
2022-07-26T22:48:57.742Z,0.40
2022-07-26T22:51:24.459Z,0.20
2022-07-26T22:53:50.984Z,0.10
2022-07-26T22:56:19.878Z,0.23
2022-07-26T22:58:47.467Z,0.20
2022-07-26T23:01:14.521Z,0.28
2022-07-26T23:03:41.474Z,0.10
2022-07-26T23:06:29.020Z,0.10
2022-07-26T23:08:57.612Z,0.30
2022-07-26T23:11:24.086Z,0.40
2022-07-26T23:13:50.718Z,0.20
2022-07-26T23:16:27.735Z,0.20
2022-07-26T23:18:55.215Z,0.20
2022-07-26T23:21:21.734Z,0.30
2022-07-26T23:23:49.849Z,0.10
2022-07-26T23:26:18.537Z,0.35
2022-07-26T23:28:45.231Z,0.35
2022-07-26T23:31:14.899Z,0.60
2022-07-26T23:33:51.928Z,0.83
2022-07-26T23:36:30.260Z,0.43
2022-07-26T23:38:58.994Z,0.20
2022-07-26T23:41:26.854Z,0.35
2022-07-26T23:43:54.354Z,0.25
2022-07-26T23:46:22.815Z,0.20
2022-07-26T23:48:50.389Z,0.20
2022-07-26T23:51:17.039Z,0.20
2022-07-26T23:53:43.622Z,0.10
2022-07-26T23:56:10.062Z,0.15
2022-07-26T23:58:36.854Z,0.13
